sensor_id;sensor_type;location;lat;lon;timestamp;P1;durP1;ratioP1;P2;durP2;ratioP2
4742;SDS011;24293;48.154;7.748;2023-09-30T00:01:02;25.30;;;9.23;;
4742;SDS011;24293;48.154;7.748;2023-09-30T00:03:29;21.17;;;9.03;;
4742;SDS011;24293;48.154;7.748;2023-09-30T00:05:55;27.30;;;8.87;;
4742;SDS011;24293;48.154;7.748;2023-09-30T00:08:22;25.80;;;8.50;;
4742;SDS011;24293;48.154;7.748;2023-09-30T00:10:48;19.40;;;7.90;;
4742;SDS011;24293;48.154;7.748;2023-09-30T00:13:16;21.70;;;7.67;;
4742;SDS011;24293;48.154;7.748;2023-09-30T00:15:43;22.53;;;7.73;;
4742;SDS011;24293;48.154;7.748;2023-09-30T00:18:09;24.77;;;8.00;;
4742;SDS011;24293;48.154;7.748;2023-09-30T00:20:36;17.20;;;6.53;;
4742;SDS011;24293;48.154;7.748;2023-09-30T00:23:02;27.30;;;6.33;;
4742;SDS011;24293;48.154;7.748;2023-09-30T00:25:31;23.13;;;6.80;;
4742;SDS011;24293;48.154;7.748;2023-09-30T00:27:57;23.23;;;7.60;;
4742;SDS011;24293;48.154;7.748;2023-09-30T00:30:25;17.30;;;6.60;;
4742;SDS011;24293;48.154;7.748;2023-09-30T00:32:51;19.10;;;7.37;;
4742;SDS011;24293;48.154;7.748;2023-09-30T00:35:18;24.27;;;7.10;;
4742;SDS011;24293;48.154;7.748;2023-09-30T00:37:44;21.87;;;7.13;;
4742;SDS011;24293;48.154;7.748;2023-09-30T00:40:11;24.43;;;7.60;;
4742;SDS011;24293;48.154;7.748;2023-09-30T00:42:38;26.40;;;7.60;;
4742;SDS011;24293;48.154;7.748;2023-09-30T00:45:06;23.20;;;8.23;;
4742;SDS011;24293;48.154;7.748;2023-09-30T00:47:35;18.57;;;6.87;;
4742;SDS011;24293;48.154;7.748;2023-09-30T00:50:02;19.53;;;7.07;;
4742;SDS011;24293;48.154;7.748;2023-09-30T00:52:29;20.00;;;7.10;;
4742;SDS011;24293;48.154;7.748;2023-09-30T00:54:56;21.30;;;6.90;;
4742;SDS011;24293;48.154;7.748;2023-09-30T00:57:22;21.43;;;7.83;;
4742;SDS011;24293;48.154;7.748;2023-09-30T00:59:50;22.23;;;7.30;;
4742;SDS011;24293;48.154;7.748;2023-09-30T01:02:17;19.80;;;7.13;;
4742;SDS011;24293;48.154;7.748;2023-09-30T01:04:45;21.87;;;7.23;;
4742;SDS011;24293;48.154;7.748;2023-09-30T01:07:11;17.33;;;6.77;;
4742;SDS011;24293;48.154;7.748;2023-09-30T01:09:38;23.43;;;7.80;;
4742;SDS011;24293;48.154;7.748;2023-09-30T01:12:05;22.93;;;7.80;;
4742;SDS011;24293;48.154;7.748;2023-09-30T01:14:33;21.03;;;7.00;;
4742;SDS011;24293;48.154;7.748;2023-09-30T01:17:01;17.10;;;6.90;;
4742;SDS011;24293;48.154;7.748;2023-09-30T01:19:28;20.83;;;7.27;;
4742;SDS011;24293;48.154;7.748;2023-09-30T01:21:56;21.40;;;7.43;;
4742;SDS011;24293;48.154;7.748;2023-09-30T01:24:24;19.50;;;8.03;;
4742;SDS011;24293;48.154;7.748;2023-09-30T01:26:50;21.70;;;8.37;;
4742;SDS011;24293;48.154;7.748;2023-09-30T01:29:18;23.67;;;8.30;;
4742;SDS011;24293;48.154;7.748;2023-09-30T01:31:44;23.10;;;8.07;;
4742;SDS011;24293;48.154;7.748;2023-09-30T01:34:13;21.20;;;7.90;;
4742;SDS011;24293;48.154;7.748;2023-09-30T01:36:39;21.03;;;7.53;;
4742;SDS011;24293;48.154;7.748;2023-09-30T01:39:07;21.20;;;7.37;;
4742;SDS011;24293;48.154;7.748;2023-09-30T01:41:35;19.40;;;7.17;;
4742;SDS011;24293;48.154;7.748;2023-09-30T01:44:02;21.63;;;7.93;;
4742;SDS011;24293;48.154;7.748;2023-09-30T01:46:28;19.70;;;7.43;;
4742;SDS011;24293;48.154;7.748;2023-09-30T01:48:55;18.10;;;7.07;;
4742;SDS011;24293;48.154;7.748;2023-09-30T01:51:21;23.17;;;7.90;;
4742;SDS011;24293;48.154;7.748;2023-09-30T01:53:48;18.97;;;7.30;;
4742;SDS011;24293;48.154;7.748;2023-09-30T01:56:16;25.73;;;7.43;;
4742;SDS011;24293;48.154;7.748;2023-09-30T01:58:43;21.60;;;7.50;;
4742;SDS011;24293;48.154;7.748;2023-09-30T02:01:09;21.40;;;7.67;;
4742;SDS011;24293;48.154;7.748;2023-09-30T02:03:36;19.10;;;6.77;;
4742;SDS011;24293;48.154;7.748;2023-09-30T02:06:03;22.80;;;7.27;;
4742;SDS011;24293;48.154;7.748;2023-09-30T02:08:29;24.13;;;7.50;;
4742;SDS011;24293;48.154;7.748;2023-09-30T02:10:56;18.97;;;6.77;;
4742;SDS011;24293;48.154;7.748;2023-09-30T02:13:24;27.00;;;7.60;;
4742;SDS011;24293;48.154;7.748;2023-09-30T02:15:50;18.67;;;6.67;;
4742;SDS011;24293;48.154;7.748;2023-09-30T02:18:17;19.17;;;6.97;;
4742;SDS011;24293;48.154;7.748;2023-09-30T02:20:43;21.23;;;7.90;;
4742;SDS011;24293;48.154;7.748;2023-09-30T02:23:10;25.80;;;7.63;;
4742;SDS011;24293;48.154;7.748;2023-09-30T02:25:37;18.80;;;7.00;;
4742;SDS011;24293;48.154;7.748;2023-09-30T02:28:03;25.20;;;7.40;;
4742;SDS011;24293;48.154;7.748;2023-09-30T02:30:31;19.73;;;7.50;;
4742;SDS011;24293;48.154;7.748;2023-09-30T02:32:58;20.40;;;7.60;;
4742;SDS011;24293;48.154;7.748;2023-09-30T02:35:24;23.10;;;6.80;;
4742;SDS011;24293;48.154;7.748;2023-09-30T02:37:51;23.27;;;7.90;;
4742;SDS011;24293;48.154;7.748;2023-09-30T02:40:18;20.00;;;7.30;;
4742;SDS011;24293;48.154;7.748;2023-09-30T02:42:45;16.33;;;6.50;;
4742;SDS011;24293;48.154;7.748;2023-09-30T02:45:11;18.63;;;7.40;;
4742;SDS011;24293;48.154;7.748;2023-09-30T02:47:39;20.17;;;7.40;;
4742;SDS011;24293;48.154;7.748;2023-09-30T02:50:07;20.47;;;6.90;;
4742;SDS011;24293;48.154;7.748;2023-09-30T02:52:36;15.40;;;7.00;;
4742;SDS011;24293;48.154;7.748;2023-09-30T02:55:04;17.40;;;6.63;;
4742;SDS011;24293;48.154;7.748;2023-09-30T02:57:31;21.63;;;6.87;;
4742;SDS011;24293;48.154;7.748;2023-09-30T02:59:58;21.30;;;6.70;;
4742;SDS011;24293;48.154;7.748;2023-09-30T03:02:25;18.17;;;7.23;;
4742;SDS011;24293;48.154;7.748;2023-09-30T03:04:53;17.67;;;7.23;;
4742;SDS011;24293;48.154;7.748;2023-09-30T03:07:20;20.17;;;7.00;;
4742;SDS011;24293;48.154;7.748;2023-09-30T03:09:46;15.90;;;6.63;;
4742;SDS011;24293;48.154;7.748;2023-09-30T03:12:13;17.17;;;7.00;;
4742;SDS011;24293;48.154;7.748;2023-09-30T03:14:40;19.30;;;6.40;;
4742;SDS011;24293;48.154;7.748;2023-09-30T03:17:07;16.10;;;6.00;;
4742;SDS011;24293;48.154;7.748;2023-09-30T03:19:36;18.40;;;6.17;;
4742;SDS011;24293;48.154;7.748;2023-09-30T03:22:05;18.93;;;5.93;;
4742;SDS011;24293;48.154;7.748;2023-09-30T03:24:36;21.70;;;6.50;;
4742;SDS011;24293;48.154;7.748;2023-09-30T03:27:02;16.40;;;6.20;;
4742;SDS011;24293;48.154;7.748;2023-09-30T03:29:29;23.90;;;7.20;;
4742;SDS011;24293;48.154;7.748;2023-09-30T03:31:56;20.10;;;7.07;;
4742;SDS011;24293;48.154;7.748;2023-09-30T03:34:22;20.60;;;7.40;;
4742;SDS011;24293;48.154;7.748;2023-09-30T03:36:49;17.83;;;7.47;;
4742;SDS011;24293;48.154;7.748;2023-09-30T03:39:17;16.80;;;6.43;;
4742;SDS011;24293;48.154;7.748;2023-09-30T03:41:51;17.07;;;5.87;;
4742;SDS011;24293;48.154;7.748;2023-09-30T03:44:19;13.80;;;4.93;;
4742;SDS011;24293;48.154;7.748;2023-09-30T03:46:46;14.53;;;4.20;;
4742;SDS011;24293;48.154;7.748;2023-09-30T03:49:12;11.17;;;4.53;;
4742;SDS011;24293;48.154;7.748;2023-09-30T03:51:38;13.90;;;4.37;;
4742;SDS011;24293;48.154;7.748;2023-09-30T03:54:06;13.40;;;4.67;;
4742;SDS011;24293;48.154;7.748;2023-09-30T03:56:35;12.57;;;4.43;;
4742;SDS011;24293;48.154;7.748;2023-09-30T03:59:03;14.00;;;5.00;;
4742;SDS011;24293;48.154;7.748;2023-09-30T04:01:30;11.30;;;4.33;;
4742;SDS011;24293;48.154;7.748;2023-09-30T04:03:56;10.40;;;4.20;;
4742;SDS011;24293;48.154;7.748;2023-09-30T04:06:23;10.37;;;4.17;;
4742;SDS011;24293;48.154;7.748;2023-09-30T04:08:50;17.60;;;4.40;;
4742;SDS011;24293;48.154;7.748;2023-09-30T04:11:16;13.40;;;4.93;;
4742;SDS011;24293;48.154;7.748;2023-09-30T04:13:54;16.00;;;4.33;;
4742;SDS011;24293;48.154;7.748;2023-09-30T04:16:21;12.97;;;4.53;;
4742;SDS011;24293;48.154;7.748;2023-09-30T04:18:53;15.70;;;4.73;;
4742;SDS011;24293;48.154;7.748;2023-09-30T04:21:20;11.57;;;4.57;;
4742;SDS011;24293;48.154;7.748;2023-09-30T04:23:47;12.33;;;4.67;;
4742;SDS011;24293;48.154;7.748;2023-09-30T04:26:14;13.40;;;4.70;;
4742;SDS011;24293;48.154;7.748;2023-09-30T04:28:41;12.50;;;5.00;;
4742;SDS011;24293;48.154;7.748;2023-09-30T04:31:10;18.07;;;5.00;;
4742;SDS011;24293;48.154;7.748;2023-09-30T04:33:37;13.30;;;4.60;;
4742;SDS011;24293;48.154;7.748;2023-09-30T04:36:05;13.17;;;4.93;;
4742;SDS011;24293;48.154;7.748;2023-09-30T04:38:33;9.20;;;4.07;;
4742;SDS011;24293;48.154;7.748;2023-09-30T04:41:00;13.93;;;4.80;;
4742;SDS011;24293;48.154;7.748;2023-09-30T04:43:26;14.00;;;4.80;;
4742;SDS011;24293;48.154;7.748;2023-09-30T04:45:54;15.00;;;5.03;;
4742;SDS011;24293;48.154;7.748;2023-09-30T04:48:23;15.43;;;5.10;;
4742;SDS011;24293;48.154;7.748;2023-09-30T04:50:50;13.60;;;5.90;;
4742;SDS011;24293;48.154;7.748;2023-09-30T04:53:17;16.50;;;6.30;;
4742;SDS011;24293;48.154;7.748;2023-09-30T04:55:43;18.30;;;7.07;;
4742;SDS011;24293;48.154;7.748;2023-09-30T04:58:10;17.20;;;7.10;;
4742;SDS011;24293;48.154;7.748;2023-09-30T05:00:38;20.80;;;8.80;;
4742;SDS011;24293;48.154;7.748;2023-09-30T05:03:04;20.10;;;8.37;;
4742;SDS011;24293;48.154;7.748;2023-09-30T05:05:32;20.23;;;7.80;;
4742;SDS011;24293;48.154;7.748;2023-09-30T05:08:00;17.23;;;6.63;;
4742;SDS011;24293;48.154;7.748;2023-09-30T05:10:27;12.70;;;5.27;;
4742;SDS011;24293;48.154;7.748;2023-09-30T05:12:55;13.33;;;5.40;;
4742;SDS011;24293;48.154;7.748;2023-09-30T05:15:21;15.30;;;5.00;;
4742;SDS011;24293;48.154;7.748;2023-09-30T05:17:48;13.80;;;5.87;;
4742;SDS011;24293;48.154;7.748;2023-09-30T05:20:15;17.67;;;6.20;;
4742;SDS011;24293;48.154;7.748;2023-09-30T05:22:44;13.93;;;4.63;;
4742;SDS011;24293;48.154;7.748;2023-09-30T05:25:11;13.53;;;5.00;;
4742;SDS011;24293;48.154;7.748;2023-09-30T05:27:39;16.70;;;6.60;;
4742;SDS011;24293;48.154;7.748;2023-09-30T05:30:06;12.63;;;5.13;;
4742;SDS011;24293;48.154;7.748;2023-09-30T05:32:32;15.80;;;5.40;;
4742;SDS011;24293;48.154;7.748;2023-09-30T05:35:00;15.33;;;5.73;;
4742;SDS011;24293;48.154;7.748;2023-09-30T05:37:28;10.20;;;4.80;;
4742;SDS011;24293;48.154;7.748;2023-09-30T05:39:56;15.70;;;6.00;;
4742;SDS011;24293;48.154;7.748;2023-09-30T05:42:22;14.77;;;5.53;;
4742;SDS011;24293;48.154;7.748;2023-09-30T05:44:49;14.37;;;5.23;;
4742;SDS011;24293;48.154;7.748;2023-09-30T05:47:16;15.47;;;6.10;;
4742;SDS011;24293;48.154;7.748;2023-09-30T05:49:42;12.03;;;4.60;;
4742;SDS011;24293;48.154;7.748;2023-09-30T05:52:09;14.67;;;5.70;;
4742;SDS011;24293;48.154;7.748;2023-09-30T05:54:35;15.40;;;4.93;;
4742;SDS011;24293;48.154;7.748;2023-09-30T05:57:04;16.43;;;4.80;;
4742;SDS011;24293;48.154;7.748;2023-09-30T05:59:30;15.47;;;5.17;;
4742;SDS011;24293;48.154;7.748;2023-09-30T06:01:57;10.07;;;4.50;;
4742;SDS011;24293;48.154;7.748;2023-09-30T06:04:24;15.90;;;7.13;;
4742;SDS011;24293;48.154;7.748;2023-09-30T06:06:51;14.93;;;4.83;;
4742;SDS011;24293;48.154;7.748;2023-09-30T06:09:18;15.03;;;5.37;;
4742;SDS011;24293;48.154;7.748;2023-09-30T06:11:44;13.03;;;5.03;;
4742;SDS011;24293;48.154;7.748;2023-09-30T06:14:12;14.30;;;5.60;;
4742;SDS011;24293;48.154;7.748;2023-09-30T06:16:39;18.10;;;6.20;;
4742;SDS011;24293;48.154;7.748;2023-09-30T06:19:06;23.60;;;8.33;;
4742;SDS011;24293;48.154;7.748;2023-09-30T06:21:34;19.77;;;7.57;;
4742;SDS011;24293;48.154;7.748;2023-09-30T06:24:00;22.17;;;7.60;;
4742;SDS011;24293;48.154;7.748;2023-09-30T06:26:27;17.07;;;7.23;;
4742;SDS011;24293;48.154;7.748;2023-09-30T06:28:55;17.10;;;7.10;;
4742;SDS011;24293;48.154;7.748;2023-09-30T06:31:23;24.17;;;6.33;;
4742;SDS011;24293;48.154;7.748;2023-09-30T06:33:49;15.23;;;6.70;;
4742;SDS011;24293;48.154;7.748;2023-09-30T06:36:16;14.43;;;6.10;;
4742;SDS011;24293;48.154;7.748;2023-09-30T06:38:43;16.23;;;6.63;;
4742;SDS011;24293;48.154;7.748;2023-09-30T06:41:14;19.73;;;7.83;;
4742;SDS011;24293;48.154;7.748;2023-09-30T06:43:41;15.70;;;6.63;;
4742;SDS011;24293;48.154;7.748;2023-09-30T06:46:08;21.90;;;6.70;;
4742;SDS011;24293;48.154;7.748;2023-09-30T06:48:37;17.63;;;6.43;;
4742;SDS011;24293;48.154;7.748;2023-09-30T06:51:05;22.10;;;7.80;;
4742;SDS011;24293;48.154;7.748;2023-09-30T06:53:32;20.17;;;7.57;;
4742;SDS011;24293;48.154;7.748;2023-09-30T06:55:58;19.07;;;6.50;;
4742;SDS011;24293;48.154;7.748;2023-09-30T06:58:27;16.47;;;6.33;;
4742;SDS011;24293;48.154;7.748;2023-09-30T07:00:53;18.67;;;7.07;;
4742;SDS011;24293;48.154;7.748;2023-09-30T07:03:20;17.80;;;6.50;;
4742;SDS011;24293;48.154;7.748;2023-09-30T07:05:48;23.13;;;8.33;;
4742;SDS011;24293;48.154;7.748;2023-09-30T07:08:16;15.90;;;6.53;;
4742;SDS011;24293;48.154;7.748;2023-09-30T07:10:43;15.50;;;5.73;;
4742;SDS011;24293;48.154;7.748;2023-09-30T07:13:10;14.67;;;6.70;;
4742;SDS011;24293;48.154;7.748;2023-09-30T07:15:36;15.33;;;6.20;;
4742;SDS011;24293;48.154;7.748;2023-09-30T07:18:03;16.13;;;5.67;;
4742;SDS011;24293;48.154;7.748;2023-09-30T07:20:29;18.23;;;6.50;;
4742;SDS011;24293;48.154;7.748;2023-09-30T07:22:59;15.53;;;6.33;;
4742;SDS011;24293;48.154;7.748;2023-09-30T07:25:26;17.17;;;7.00;;
4742;SDS011;24293;48.154;7.748;2023-09-30T07:27:52;17.27;;;6.30;;
4742;SDS011;24293;48.154;7.748;2023-09-30T07:30:19;23.50;;;7.30;;
4742;SDS011;24293;48.154;7.748;2023-09-30T07:32:45;17.13;;;6.10;;
4742;SDS011;24293;48.154;7.748;2023-09-30T07:35:12;18.70;;;6.20;;
4742;SDS011;24293;48.154;7.748;2023-09-30T07:37:40;21.50;;;7.50;;
4742;SDS011;24293;48.154;7.748;2023-09-30T07:40:09;24.93;;;7.10;;
4742;SDS011;24293;48.154;7.748;2023-09-30T07:42:36;19.50;;;6.93;;
4742;SDS011;24293;48.154;7.748;2023-09-30T07:45:03;21.60;;;6.67;;
4742;SDS011;24293;48.154;7.748;2023-09-30T07:47:29;20.60;;;7.00;;
4742;SDS011;24293;48.154;7.748;2023-09-30T07:49:58;17.93;;;6.17;;
4742;SDS011;24293;48.154;7.748;2023-09-30T07:52:25;23.83;;;6.73;;
4742;SDS011;24293;48.154;7.748;2023-09-30T07:54:52;23.50;;;6.83;;
4742;SDS011;24293;48.154;7.748;2023-09-30T07:57:20;17.93;;;6.50;;
4742;SDS011;24293;48.154;7.748;2023-09-30T07:59:46;20.50;;;6.43;;
4742;SDS011;24293;48.154;7.748;2023-09-30T08:02:14;17.80;;;6.70;;
4742;SDS011;24293;48.154;7.748;2023-09-30T08:04:40;15.37;;;4.50;;
4742;SDS011;24293;48.154;7.748;2023-09-30T08:07:07;14.30;;;4.90;;
4742;SDS011;24293;48.154;7.748;2023-09-30T08:09:34;14.67;;;4.97;;
4742;SDS011;24293;48.154;7.748;2023-09-30T08:12:02;15.30;;;5.00;;
4742;SDS011;24293;48.154;7.748;2023-09-30T08:14:31;20.73;;;4.90;;
4742;SDS011;24293;48.154;7.748;2023-09-30T08:16:57;14.83;;;5.10;;
4742;SDS011;24293;48.154;7.748;2023-09-30T08:19:23;10.23;;;4.50;;
4742;SDS011;24293;48.154;7.748;2023-09-30T08:21:50;13.97;;;4.00;;
4742;SDS011;24293;48.154;7.748;2023-09-30T08:24:17;10.70;;;3.83;;
4742;SDS011;24293;48.154;7.748;2023-09-30T08:26:43;12.43;;;3.67;;
4742;SDS011;24293;48.154;7.748;2023-09-30T08:29:10;21.17;;;4.83;;
4742;SDS011;24293;48.154;7.748;2023-09-30T08:31:38;10.97;;;4.20;;
4742;SDS011;24293;48.154;7.748;2023-09-30T08:34:04;13.07;;;3.93;;
4742;SDS011;24293;48.154;7.748;2023-09-30T08:36:31;19.43;;;4.30;;
4742;SDS011;24293;48.154;7.748;2023-09-30T08:38:58;9.97;;;4.30;;
4742;SDS011;24293;48.154;7.748;2023-09-30T08:41:31;12.13;;;4.43;;
4742;SDS011;24293;48.154;7.748;2023-09-30T08:43:59;9.70;;;3.77;;
4742;SDS011;24293;48.154;7.748;2023-09-30T08:46:26;10.53;;;3.90;;
4742;SDS011;24293;48.154;7.748;2023-09-30T08:48:55;11.53;;;4.77;;
4742;SDS011;24293;48.154;7.748;2023-09-30T08:51:23;11.20;;;3.87;;
4742;SDS011;24293;48.154;7.748;2023-09-30T08:53:50;12.33;;;4.90;;
4742;SDS011;24293;48.154;7.748;2023-09-30T08:56:18;12.73;;;4.10;;
4742;SDS011;24293;48.154;7.748;2023-09-30T08:58:45;8.50;;;3.70;;
4742;SDS011;24293;48.154;7.748;2023-09-30T09:01:12;9.60;;;3.67;;
4742;SDS011;24293;48.154;7.748;2023-09-30T09:03:38;10.70;;;4.20;;
4742;SDS011;24293;48.154;7.748;2023-09-30T09:06:07;10.10;;;3.90;;
4742;SDS011;24293;48.154;7.748;2023-09-30T09:08:33;10.63;;;4.30;;
4742;SDS011;24293;48.154;7.748;2023-09-30T09:11:00;8.77;;;3.73;;
4742;SDS011;24293;48.154;7.748;2023-09-30T09:13:28;15.67;;;4.60;;
4742;SDS011;24293;48.154;7.748;2023-09-30T09:16:10;8.37;;;4.17;;
4742;SDS011;24293;48.154;7.748;2023-09-30T09:18:37;9.93;;;4.03;;
4742;SDS011;24293;48.154;7.748;2023-09-30T09:21:11;10.27;;;3.77;;
4742;SDS011;24293;48.154;7.748;2023-09-30T09:23:42;10.13;;;3.47;;
4742;SDS011;24293;48.154;7.748;2023-09-30T09:26:09;9.40;;;4.00;;
4742;SDS011;24293;48.154;7.748;2023-09-30T09:28:36;14.27;;;3.37;;
4742;SDS011;24293;48.154;7.748;2023-09-30T09:31:19;12.03;;;4.03;;
4742;SDS011;24293;48.154;7.748;2023-09-30T09:33:45;7.50;;;3.30;;
4742;SDS011;24293;48.154;7.748;2023-09-30T09:36:14;9.17;;;3.60;;
4742;SDS011;24293;48.154;7.748;2023-09-30T09:38:43;7.20;;;3.10;;
4742;SDS011;24293;48.154;7.748;2023-09-30T09:41:09;9.23;;;4.20;;
4742;SDS011;24293;48.154;7.748;2023-09-30T09:43:36;8.70;;;3.57;;
4742;SDS011;24293;48.154;7.748;2023-09-30T09:46:03;10.83;;;4.00;;
4742;SDS011;24293;48.154;7.748;2023-09-30T09:48:30;7.30;;;3.17;;
4742;SDS011;24293;48.154;7.748;2023-09-30T09:50:57;10.57;;;3.67;;
4742;SDS011;24293;48.154;7.748;2023-09-30T09:53:25;11.60;;;4.00;;
4742;SDS011;24293;48.154;7.748;2023-09-30T09:55:52;9.17;;;3.03;;
4742;SDS011;24293;48.154;7.748;2023-09-30T09:58:19;12.40;;;3.80;;
4742;SDS011;24293;48.154;7.748;2023-09-30T10:00:47;6.60;;;3.00;;
4742;SDS011;24293;48.154;7.748;2023-09-30T10:03:13;9.07;;;3.70;;
4742;SDS011;24293;48.154;7.748;2023-09-30T10:05:40;6.27;;;2.53;;
4742;SDS011;24293;48.154;7.748;2023-09-30T10:08:07;11.13;;;3.10;;
4742;SDS011;24293;48.154;7.748;2023-09-30T10:10:37;5.97;;;3.30;;
4742;SDS011;24293;48.154;7.748;2023-09-30T10:13:04;7.90;;;2.97;;
4742;SDS011;24293;48.154;7.748;2023-09-30T10:15:34;7.10;;;3.00;;
4742;SDS011;24293;48.154;7.748;2023-09-30T10:18:01;5.20;;;2.30;;
4742;SDS011;24293;48.154;7.748;2023-09-30T10:20:28;6.43;;;2.63;;
4742;SDS011;24293;48.154;7.748;2023-09-30T10:25:44;6.40;;;2.93;;
4742;SDS011;24293;48.154;7.748;2023-09-30T10:31:10;6.27;;;2.43;;
4742;SDS011;24293;48.154;7.748;2023-09-30T10:33:41;9.27;;;2.60;;
4742;SDS011;24293;48.154;7.748;2023-09-30T10:36:28;12.00;;;2.77;;
4742;SDS011;24293;48.154;7.748;2023-09-30T10:38:54;6.97;;;2.33;;
4742;SDS011;24293;48.154;7.748;2023-09-30T10:46:45;14.30;;;3.00;;
4742;SDS011;24293;48.154;7.748;2023-09-30T10:49:15;8.70;;;3.13;;
4742;SDS011;24293;48.154;7.748;2023-09-30T10:51:42;7.93;;;3.20;;
4742;SDS011;24293;48.154;7.748;2023-09-30T10:54:09;8.80;;;3.60;;
4742;SDS011;24293;48.154;7.748;2023-09-30T10:56:36;9.83;;;3.57;;
4742;SDS011;24293;48.154;7.748;2023-09-30T10:59:03;7.97;;;3.37;;
4742;SDS011;24293;48.154;7.748;2023-09-30T11:01:31;11.63;;;4.00;;
4742;SDS011;24293;48.154;7.748;2023-09-30T11:04:01;10.60;;;4.37;;
4742;SDS011;24293;48.154;7.748;2023-09-30T11:06:29;9.13;;;3.70;;
4742;SDS011;24293;48.154;7.748;2023-09-30T11:08:56;13.97;;;3.97;;
4742;SDS011;24293;48.154;7.748;2023-09-30T11:11:36;10.53;;;4.10;;
4742;SDS011;24293;48.154;7.748;2023-09-30T11:14:02;10.50;;;3.83;;
4742;SDS011;24293;48.154;7.748;2023-09-30T11:16:39;14.37;;;4.90;;
4742;SDS011;24293;48.154;7.748;2023-09-30T11:19:07;11.37;;;4.90;;
4742;SDS011;24293;48.154;7.748;2023-09-30T11:21:34;12.67;;;4.63;;
4742;SDS011;24293;48.154;7.748;2023-09-30T11:24:00;12.97;;;5.00;;
4742;SDS011;24293;48.154;7.748;2023-09-30T11:26:30;16.10;;;5.77;;
4742;SDS011;24293;48.154;7.748;2023-09-30T11:29:04;14.93;;;6.20;;
4742;SDS011;24293;48.154;7.748;2023-09-30T11:31:30;19.40;;;8.53;;
4742;SDS011;24293;48.154;7.748;2023-09-30T11:33:59;19.80;;;6.80;;
4742;SDS011;24293;48.154;7.748;2023-09-30T11:36:30;20.67;;;7.30;;
4742;SDS011;24293;48.154;7.748;2023-09-30T11:38:57;17.33;;;7.00;;
4742;SDS011;24293;48.154;7.748;2023-09-30T11:41:32;15.53;;;7.00;;
4742;SDS011;24293;48.154;7.748;2023-09-30T11:43:59;17.93;;;6.33;;
4742;SDS011;24293;48.154;7.748;2023-09-30T11:46:27;20.13;;;7.90;;
4742;SDS011;24293;48.154;7.748;2023-09-30T11:48:56;17.53;;;7.77;;
4742;SDS011;24293;48.154;7.748;2023-09-30T11:51:23;22.30;;;8.57;;
4742;SDS011;24293;48.154;7.748;2023-09-30T11:53:52;20.67;;;8.23;;
4742;SDS011;24293;48.154;7.748;2023-09-30T11:56:18;15.20;;;6.70;;
4742;SDS011;24293;48.154;7.748;2023-09-30T11:58:45;15.80;;;6.67;;
4742;SDS011;24293;48.154;7.748;2023-09-30T12:01:13;18.70;;;6.83;;
4742;SDS011;24293;48.154;7.748;2023-09-30T12:03:41;14.93;;;5.63;;
4742;SDS011;24293;48.154;7.748;2023-09-30T12:06:08;14.87;;;5.97;;
4742;SDS011;24293;48.154;7.748;2023-09-30T12:08:35;18.23;;;5.97;;
4742;SDS011;24293;48.154;7.748;2023-09-30T12:11:04;17.77;;;6.50;;
4742;SDS011;24293;48.154;7.748;2023-09-30T12:13:31;12.97;;;6.10;;
4742;SDS011;24293;48.154;7.748;2023-09-30T12:15:57;19.90;;;7.07;;
4742;SDS011;24293;48.154;7.748;2023-09-30T12:18:24;18.40;;;6.57;;
4742;SDS011;24293;48.154;7.748;2023-09-30T12:20:52;20.33;;;6.50;;
4742;SDS011;24293;48.154;7.748;2023-09-30T12:23:18;15.20;;;6.63;;
4742;SDS011;24293;48.154;7.748;2023-09-30T12:25:45;15.10;;;6.97;;
4742;SDS011;24293;48.154;7.748;2023-09-30T12:28:13;18.73;;;6.97;;
4742;SDS011;24293;48.154;7.748;2023-09-30T12:30:40;16.03;;;5.60;;
4742;SDS011;24293;48.154;7.748;2023-09-30T12:33:08;19.40;;;6.53;;
4742;SDS011;24293;48.154;7.748;2023-09-30T12:35:35;19.60;;;7.47;;
4742;SDS011;24293;48.154;7.748;2023-09-30T12:38:02;15.33;;;6.63;;
4742;SDS011;24293;48.154;7.748;2023-09-30T12:40:28;17.53;;;6.30;;
4742;SDS011;24293;48.154;7.748;2023-09-30T12:42:55;17.53;;;6.23;;
4742;SDS011;24293;48.154;7.748;2023-09-30T12:45:24;15.57;;;6.70;;
4742;SDS011;24293;48.154;7.748;2023-09-30T12:47:50;20.23;;;7.50;;
4742;SDS011;24293;48.154;7.748;2023-09-30T12:50:19;18.17;;;6.80;;
4742;SDS011;24293;48.154;7.748;2023-09-30T12:52:45;16.57;;;7.07;;
4742;SDS011;24293;48.154;7.748;2023-09-30T12:55:12;19.63;;;8.30;;
4742;SDS011;24293;48.154;7.748;2023-09-30T12:57:38;23.50;;;10.60;;
4742;SDS011;24293;48.154;7.748;2023-09-30T13:00:06;27.50;;;10.77;;
4742;SDS011;24293;48.154;7.748;2023-09-30T13:02:36;26.60;;;10.70;;
4742;SDS011;24293;48.154;7.748;2023-09-30T13:05:03;21.30;;;9.30;;
4742;SDS011;24293;48.154;7.748;2023-09-30T13:07:32;21.00;;;8.60;;
4742;SDS011;24293;48.154;7.748;2023-09-30T13:09:58;20.30;;;8.27;;
4742;SDS011;24293;48.154;7.748;2023-09-30T13:12:26;16.97;;;8.00;;
4742;SDS011;24293;48.154;7.748;2023-09-30T13:14:53;22.50;;;8.77;;
4742;SDS011;24293;48.154;7.748;2023-09-30T13:17:21;28.33;;;8.33;;
4742;SDS011;24293;48.154;7.748;2023-09-30T13:19:50;21.33;;;9.40;;
4742;SDS011;24293;48.154;7.748;2023-09-30T13:22:16;22.33;;;9.10;;
4742;SDS011;24293;48.154;7.748;2023-09-30T13:24:43;20.33;;;9.43;;
4742;SDS011;24293;48.154;7.748;2023-09-30T13:27:09;20.00;;;8.50;;
4742;SDS011;24293;48.154;7.748;2023-09-30T13:29:35;16.40;;;7.57;;
4742;SDS011;24293;48.154;7.748;2023-09-30T13:32:03;20.07;;;8.07;;
4742;SDS011;24293;48.154;7.748;2023-09-30T13:34:30;26.33;;;8.90;;
4742;SDS011;24293;48.154;7.748;2023-09-30T13:36:58;18.20;;;8.40;;
4742;SDS011;24293;48.154;7.748;2023-09-30T13:39:24;20.53;;;7.40;;
4742;SDS011;24293;48.154;7.748;2023-09-30T13:41:51;19.20;;;8.87;;
4742;SDS011;24293;48.154;7.748;2023-09-30T13:44:17;18.13;;;7.30;;
4742;SDS011;24293;48.154;7.748;2023-09-30T13:46:44;21.90;;;8.67;;
4742;SDS011;24293;48.154;7.748;2023-09-30T13:49:11;23.63;;;8.60;;
4742;SDS011;24293;48.154;7.748;2023-09-30T13:51:37;19.83;;;9.50;;
4742;SDS011;24293;48.154;7.748;2023-09-30T13:54:06;25.70;;;10.60;;
4742;SDS011;24293;48.154;7.748;2023-09-30T13:56:33;16.50;;;7.70;;
4742;SDS011;24293;48.154;7.748;2023-09-30T13:59:00;17.23;;;7.80;;
4742;SDS011;24293;48.154;7.748;2023-09-30T14:01:26;17.50;;;7.20;;
4742;SDS011;24293;48.154;7.748;2023-09-30T14:03:53;18.43;;;8.20;;
4742;SDS011;24293;48.154;7.748;2023-09-30T14:06:22;20.90;;;8.63;;
4742;SDS011;24293;48.154;7.748;2023-09-30T14:08:48;16.60;;;7.40;;
4742;SDS011;24293;48.154;7.748;2023-09-30T14:11:16;19.43;;;7.77;;
4742;SDS011;24293;48.154;7.748;2023-09-30T14:13:43;18.93;;;8.70;;
4742;SDS011;24293;48.154;7.748;2023-09-30T14:16:10;20.50;;;9.30;;
4742;SDS011;24293;48.154;7.748;2023-09-30T14:18:36;21.93;;;7.77;;
4742;SDS011;24293;48.154;7.748;2023-09-30T14:21:04;19.83;;;8.07;;
4742;SDS011;24293;48.154;7.748;2023-09-30T14:23:30;15.73;;;7.57;;
4742;SDS011;24293;48.154;7.748;2023-09-30T14:25:57;16.60;;;7.40;;
4742;SDS011;24293;48.154;7.748;2023-09-30T14:28:26;20.67;;;8.57;;
4742;SDS011;24293;48.154;7.748;2023-09-30T14:30:52;17.33;;;7.63;;
4742;SDS011;24293;48.154;7.748;2023-09-30T14:33:18;18.30;;;7.00;;
4742;SDS011;24293;48.154;7.748;2023-09-30T14:35:45;14.37;;;6.73;;
4742;SDS011;24293;48.154;7.748;2023-09-30T14:38:12;19.20;;;7.40;;
4742;SDS011;24293;48.154;7.748;2023-09-30T14:40:38;17.43;;;6.73;;
4742;SDS011;24293;48.154;7.748;2023-09-30T14:43:05;17.13;;;7.27;;
4742;SDS011;24293;48.154;7.748;2023-09-30T14:45:36;16.70;;;6.70;;
4742;SDS011;24293;48.154;7.748;2023-09-30T14:48:03;16.47;;;6.77;;
4742;SDS011;24293;48.154;7.748;2023-09-30T14:50:29;14.93;;;6.27;;
4742;SDS011;24293;48.154;7.748;2023-09-30T14:52:56;16.23;;;6.40;;
4742;SDS011;24293;48.154;7.748;2023-09-30T14:55:23;16.80;;;6.33;;
4742;SDS011;24293;48.154;7.748;2023-09-30T14:57:49;21.60;;;7.77;;
4742;SDS011;24293;48.154;7.748;2023-09-30T15:00:16;21.27;;;8.23;;